createdAt,value
2019-05-23T00:01:44.386Z,11.71
2019-05-23T00:04:17.496Z,11.65
2019-05-23T00:06:46.566Z,11.70
2019-05-23T00:09:15.224Z,11.78
2019-05-23T00:11:48.666Z,11.63
2019-05-23T00:14:25.111Z,11.64
2019-05-23T00:16:55.745Z,11.61
2019-05-23T00:19:25.969Z,11.57
2019-05-23T00:21:56.250Z,11.54
2019-05-23T00:24:24.922Z,11.56
2019-05-23T00:26:53.559Z,11.54
2019-05-23T00:29:22.909Z,11.43
2019-05-23T00:31:58.978Z,11.53
2019-05-23T00:34:27.756Z,11.36
2019-05-23T00:36:56.487Z,11.51
2019-05-23T00:39:25.297Z,11.41
2019-05-23T00:41:54.513Z,11.50
2019-05-23T00:44:23.656Z,11.53
2019-05-23T00:46:52.857Z,11.47
2019-05-23T00:49:22.203Z,11.39
2019-05-23T00:51:51.629Z,11.35
2019-05-23T00:54:21.752Z,11.50
2019-05-23T00:56:50.461Z,11.30
2019-05-23T00:59:26.995Z,11.42
2019-05-23T01:01:49.799Z,11.30
2019-05-23T01:04:19.286Z,11.20
2019-05-23T01:06:49.497Z,11.14
2019-05-23T01:09:19.992Z,11.10
2019-05-23T01:11:49.094Z,11.13
2019-05-23T01:14:18.552Z,11.26
2019-05-23T01:16:48.258Z,11.05
2019-05-23T01:19:17.351Z,11.14
2019-05-23T01:21:47.710Z,11.14
2019-05-23T01:24:36.347Z,11.07
2019-05-23T01:27:07.481Z,10.99
2019-05-23T01:29:41.057Z,10.87
2019-05-23T01:32:14.647Z,11.05
2019-05-23T01:34:44.999Z,11.07
2019-05-23T01:37:14.105Z,11.04
2019-05-23T01:39:42.814Z,10.95
2019-05-23T01:42:12.522Z,11.05
2019-05-23T01:44:41.445Z,10.81
2019-05-23T01:47:11.557Z,10.93
2019-05-23T01:49:40.211Z,10.74
2019-05-23T01:52:08.958Z,10.79
2019-05-23T01:54:38.967Z,10.78
2019-05-23T01:57:07.690Z,10.82
2019-05-23T01:59:36.697Z,10.67
2019-05-23T02:02:07.152Z,10.65
2019-05-23T02:04:35.794Z,10.74
2019-05-23T02:07:04.744Z,10.56
2019-05-23T02:09:33.483Z,10.49
2019-05-23T02:12:03.414Z,10.51
2019-05-23T02:14:32.701Z,10.63
2019-05-23T02:17:02.548Z,10.57
2019-05-23T02:19:31.159Z,10.41
2019-05-23T02:22:01.060Z,10.61
2019-05-23T02:24:31.808Z,10.23
2019-05-23T02:27:01.709Z,10.51
2019-05-23T02:29:31.015Z,10.44
2019-05-23T02:32:00.773Z,10.45
2019-05-23T02:34:30.780Z,10.18
2019-05-23T02:37:01.232Z,10.42
2019-05-23T02:39:31.491Z,10.57
2019-05-23T02:42:04.691Z,10.55
2019-05-23T02:44:33.369Z,10.33
2019-05-23T02:47:12.483Z,10.13
2019-05-23T02:49:41.206Z,10.39
2019-05-23T02:52:35.154Z,10.32
2019-05-23T02:54:56.838Z,10.29
2019-05-23T02:57:28.070Z,10.14
2019-05-23T02:59:59.878Z,10.23
2019-05-23T03:02:33.308Z,10.19
2019-05-23T03:05:03.698Z,9.86
2019-05-23T03:07:33.138Z,9.96
2019-05-23T03:10:02.594Z,10.10
2019-05-23T03:12:31.538Z,10.16
2019-05-23T03:15:01.121Z,9.86
2019-05-23T03:17:29.931Z,9.76
2019-05-23T03:20:01.724Z,10.05
2019-05-23T03:22:34.651Z,10.06
2019-05-23T03:25:10.645Z,10.02
2019-05-23T03:27:42.888Z,9.81
2019-05-23T03:30:16.257Z,10.02
2019-05-23T03:32:46.894Z,10.22
2019-05-23T03:35:29.572Z,9.92
2019-05-23T03:37:59.030Z,10.30
2019-05-23T03:40:27.901Z,9.92
2019-05-23T03:42:57.541Z,10.08
2019-05-23T03:45:27.835Z,10.14
2019-05-23T03:47:57.373Z,10.14
2019-05-23T03:50:26.067Z,9.98
2019-05-23T03:52:56.959Z,10.09
2019-05-23T03:55:28.251Z,9.93
2019-05-23T03:57:58.038Z,10.09
2019-05-23T04:00:28.260Z,10.11
2019-05-23T04:02:58.079Z,9.78
2019-05-23T04:05:27.331Z,9.96
2019-05-23T04:07:57.083Z,9.88
2019-05-23T04:10:25.913Z,9.86
2019-05-23T04:12:54.967Z,10.03
2019-05-23T04:15:24.014Z,9.65
2019-05-23T04:17:52.615Z,10.01
2019-05-23T04:20:21.238Z,9.89
2019-05-23T04:22:50.330Z,9.52
2019-05-23T04:25:18.982Z,9.57
2019-05-23T04:27:47.918Z,9.58
2019-05-23T04:30:16.866Z,9.40
2019-05-23T04:32:45.486Z,9.62
2019-05-23T04:35:14.757Z,9.65
2019-05-23T04:37:43.437Z,9.56
2019-05-23T04:40:14.063Z,9.35
2019-05-23T04:42:42.690Z,9.28
2019-05-23T04:45:11.576Z,9.46
2019-05-23T04:47:41.275Z,9.53
2019-05-23T04:50:14.522Z,9.67
2019-05-23T04:52:43.330Z,9.83
2019-05-23T04:55:13.087Z,9.79
2019-05-23T04:57:42.705Z,9.78
2019-05-23T05:00:16.528Z,9.76
2019-05-23T05:02:46.191Z,9.73
2019-05-23T05:05:16.596Z,9.86
2019-05-23T05:07:45.652Z,9.99
2019-05-23T05:10:17.317Z,10.10
2019-05-23T05:12:46.261Z,10.11
2019-05-23T05:15:14.927Z,10.22
2019-05-23T05:17:43.650Z,10.37
2019-05-23T05:20:13.158Z,10.46
2019-05-23T05:22:42.393Z,10.43
2019-05-23T05:25:12.955Z,10.32
2019-05-23T05:27:41.569Z,10.49
2019-05-23T05:30:10.948Z,10.57
2019-05-23T05:32:44.612Z,10.61
2019-05-23T05:35:10.369Z,10.10
2019-05-23T05:37:39.129Z,10.40
2019-05-23T05:40:08.367Z,10.56
2019-05-23T05:42:40.344Z,10.56
2019-05-23T05:45:11.069Z,10.74
2019-05-23T05:47:40.650Z,11.06
2019-05-23T05:50:11.635Z,11.04
2019-05-23T05:52:40.357Z,11.08
2019-05-23T05:55:09.744Z,11.19
2019-05-23T05:57:38.465Z,11.07
2019-05-23T06:00:13.043Z,11.07
2019-05-23T06:02:41.690Z,10.89
2019-05-23T06:05:12.724Z,10.91
2019-05-23T06:07:42.529Z,11.12
2019-05-23T06:10:14.173Z,11.34
2019-05-23T06:12:43.277Z,11.58
2019-05-23T06:15:12.221Z,11.52
2019-05-23T06:17:42.064Z,12.00
2019-05-23T06:20:11.265Z,12.14
2019-05-23T06:22:40.851Z,12.17
2019-05-23T06:25:10.477Z,12.29
2019-05-23T06:27:41.273Z,12.59
2019-05-23T06:30:13.113Z,12.78
2019-05-23T06:32:42.808Z,12.79
2019-05-23T06:35:12.582Z,12.64
2019-05-23T06:37:41.234Z,12.89
2019-05-23T06:40:11.314Z,12.55
2019-05-23T06:42:40.305Z,13.31
2019-05-23T06:45:13.027Z,13.31
2019-05-23T06:47:42.447Z,12.40
2019-05-23T06:50:32.047Z,13.06
2019-05-23T06:53:01.958Z,12.53
2019-05-23T06:55:31.007Z,13.31
2019-05-23T06:57:59.890Z,13.12
2019-05-23T07:00:29.028Z,12.79
2019-05-23T07:02:58.088Z,12.53
2019-05-23T07:05:29.927Z,13.55
2019-05-23T07:07:58.764Z,13.12
2019-05-23T07:10:27.883Z,13.24
2019-05-23T07:12:56.505Z,13.14
2019-05-23T07:15:26.025Z,13.33
2019-05-23T07:17:55.309Z,13.03
2019-05-23T07:20:24.321Z,13.62
2019-05-23T07:22:52.941Z,13.83
2019-05-23T07:25:22.551Z,13.04
2019-05-23T07:27:52.048Z,13.82
2019-05-23T07:30:27.409Z,13.86
2019-05-23T07:32:57.131Z,13.69
2019-05-23T07:35:26.480Z,13.71
2019-05-23T07:37:55.271Z,13.87
2019-05-23T07:40:26.043Z,13.77
2019-05-23T07:42:54.756Z,13.83
2019-05-23T07:45:42.744Z,13.92
2019-05-23T07:48:12.674Z,14.20
2019-05-23T07:50:41.407Z,14.11
2019-05-23T07:53:12.188Z,13.75
2019-05-23T07:55:43.186Z,13.66
2019-05-23T07:58:14.034Z,13.72
2019-05-23T08:00:44.796Z,13.70
2019-05-23T08:03:15.026Z,13.50
2019-05-23T08:05:44.653Z,13.61
2019-05-23T08:08:13.820Z,13.58
2019-05-23T08:10:42.443Z,14.35
2019-05-23T08:13:11.093Z,14.36
2019-05-23T08:15:40.002Z,14.26
2019-05-23T08:18:08.693Z,14.26
2019-05-23T08:20:37.297Z,14.24
2019-05-23T08:23:06.064Z,14.12
2019-05-23T08:25:34.764Z,14.60
2019-05-23T08:31:14.639Z,14.31
2019-05-23T08:33:51.781Z,14.22
2019-05-23T08:36:20.570Z,14.46
2019-05-23T08:38:49.736Z,14.63
2019-05-23T08:41:23.508Z,14.66
2019-05-23T08:44:05.104Z,14.53
2019-05-23T08:46:39.981Z,14.59
2019-05-23T08:49:17.616Z,14.66
2019-05-23T08:51:53.984Z,14.38
2019-05-23T08:54:22.685Z,14.72
2019-05-23T08:59:48.395Z,14.59
2019-05-23T09:02:28.753Z,14.93
2019-05-23T09:05:05.330Z,15.00
2019-05-23T09:07:56.901Z,14.97
2019-05-23T09:10:39.600Z,15.21
2019-05-23T09:13:08.632Z,14.53
2019-05-23T09:15:37.386Z,14.86
2019-05-23T09:18:05.997Z,14.79
2019-05-23T09:20:34.927Z,14.87
2019-05-23T09:23:03.663Z,14.75
2019-05-23T09:25:32.227Z,15.06
2019-05-23T09:28:01.018Z,14.94
2019-05-23T09:30:30.359Z,15.28
2019-05-23T09:32:59.114Z,14.80
2019-05-23T09:35:28.152Z,15.33
2019-05-23T09:37:57.075Z,15.37
2019-05-23T09:40:26.456Z,15.40
2019-05-23T09:42:55.208Z,15.44
2019-05-23T09:45:24.326Z,15.39
2019-05-23T09:47:53.008Z,15.77
2019-05-23T09:50:23.296Z,15.91
2019-05-23T09:52:52.341Z,15.76
2019-05-23T09:55:21.582Z,15.98
2019-05-23T09:57:50.287Z,15.95
2019-05-23T10:00:20.966Z,16.34
2019-05-23T10:02:49.658Z,16.24
2019-05-23T10:05:18.296Z,16.60
2019-05-23T10:07:47.034Z,16.86
2019-05-23T10:10:17.296Z,16.38
2019-05-23T10:12:46.046Z,16.68
2019-05-23T10:15:17.157Z,16.85
2019-05-23T10:17:45.903Z,16.89
2019-05-23T10:20:14.920Z,16.80
2019-05-23T10:22:43.592Z,17.38
2019-05-23T10:25:12.299Z,17.05
2019-05-23T10:27:41.025Z,16.89
2019-05-23T10:30:12.693Z,16.75
2019-05-23T10:32:41.392Z,17.38
2019-05-23T10:35:10.738Z,17.35
2019-05-23T10:37:40.214Z,17.12
2019-05-23T10:40:09.246Z,17.48
2019-05-23T10:42:38.607Z,16.77
2019-05-23T10:45:08.906Z,16.73
2019-05-23T10:47:37.539Z,16.78
2019-05-23T10:50:09.776Z,16.79
2019-05-23T10:52:38.406Z,17.05
2019-05-23T10:55:08.260Z,16.39
2019-05-23T10:57:36.981Z,16.66
2019-05-23T11:00:07.399Z,16.79
2019-05-23T11:02:36.521Z,16.75
2019-05-23T11:05:13.689Z,16.92
2019-05-23T11:07:41.434Z,17.14
2019-05-23T11:10:10.317Z,17.50
2019-05-23T11:12:41.044Z,16.84
2019-05-23T11:15:10.350Z,17.01
2019-05-23T11:17:39.286Z,16.64
2019-05-23T11:20:09.814Z,16.96
2019-05-23T11:22:38.539Z,17.24
2019-05-23T11:25:11.923Z,17.16
2019-05-23T11:27:40.623Z,17.11
2019-05-23T11:30:26.757Z,16.93
2019-05-23T11:32:55.373Z,16.88
2019-05-23T11:35:24.566Z,17.15
2019-05-23T11:37:53.266Z,17.25
2019-05-23T11:40:21.897Z,17.22
2019-05-23T11:42:52.814Z,17.23
2019-05-23T11:45:22.850Z,17.12
2019-05-23T11:47:51.619Z,16.93
2019-05-23T11:50:20.222Z,17.55
2019-05-23T11:52:48.902Z,17.29
2019-05-23T11:55:17.959Z,17.26
2019-05-23T11:57:47.359Z,17.43
2019-05-23T12:00:17.843Z,17.18
2019-05-23T12:02:48.604Z,16.97
2019-05-23T12:05:29.661Z,17.07
2019-05-23T12:07:58.442Z,16.70
2019-05-23T12:10:27.130Z,16.74
2019-05-23T12:12:55.798Z,16.66
2019-05-23T12:15:28.995Z,16.80
2019-05-23T12:17:57.803Z,16.84
2019-05-23T12:20:26.818Z,16.83
2019-05-23T12:22:57.244Z,16.76
2019-05-23T12:25:27.542Z,16.78
2019-05-23T12:27:56.396Z,16.80
2019-05-23T12:30:25.324Z,16.59
2019-05-23T12:32:53.931Z,16.72
2019-05-23T12:35:22.551Z,16.92
2019-05-23T12:37:51.225Z,17.31
2019-05-23T12:40:21.699Z,17.05
2019-05-23T12:42:50.343Z,17.29
2019-05-23T12:45:19.460Z,17.39
2019-05-23T12:48:01.705Z,17.41
2019-05-23T12:50:40.998Z,17.20
2019-05-23T12:53:11.262Z,17.62
2019-05-23T12:55:39.892Z,17.57
2019-05-23T12:58:08.510Z,17.78
2019-05-23T13:00:41.791Z,17.70
2019-05-23T13:03:14.283Z,17.48
2019-05-23T13:05:42.920Z,17.42
2019-05-23T13:08:11.633Z,17.70
2019-05-23T13:10:40.512Z,18.31
2019-05-23T13:13:10.696Z,18.35
2019-05-23T13:15:39.891Z,17.97
2019-05-23T13:18:08.481Z,18.05
2019-05-23T13:20:39.147Z,17.86
2019-05-23T13:23:08.319Z,18.02
2019-05-23T13:25:37.736Z,18.19
2019-05-23T13:28:06.432Z,18.23
2019-05-23T13:30:35.209Z,18.20
2019-05-23T13:33:04.285Z,18.01
2019-05-23T13:35:33.164Z,17.95
2019-05-23T13:38:01.715Z,18.09
2019-05-23T13:40:30.681Z,18.21
2019-05-23T13:42:59.274Z,18.32
2019-05-23T13:45:28.084Z,18.27
2019-05-23T13:47:56.825Z,18.26
2019-05-23T13:50:25.764Z,18.41
2019-05-23T13:52:55.100Z,18.51
2019-05-23T13:55:23.808Z,18.35
2019-05-23T13:57:52.376Z,18.49
2019-05-23T14:00:21.584Z,18.54
2019-05-23T14:02:50.208Z,18.63
2019-05-23T14:05:19.580Z,18.84
2019-05-23T14:07:48.133Z,19.01
2019-05-23T14:10:18.473Z,18.83
2019-05-23T14:12:47.092Z,18.80
2019-05-23T14:15:17.418Z,18.47
2019-05-23T14:17:47.019Z,18.52
2019-05-23T14:20:16.387Z,18.50
2019-05-23T14:22:53.168Z,18.55
2019-05-23T14:25:22.219Z,18.78
2019-05-23T14:27:52.688Z,18.90
2019-05-23T14:30:26.081Z,18.54
2019-05-23T14:32:58.848Z,18.42
2019-05-23T14:35:29.100Z,18.59
2019-05-23T14:38:02.730Z,19.07
2019-05-23T14:40:31.453Z,18.76
2019-05-23T14:43:01.733Z,19.12
2019-05-23T14:45:50.082Z,18.77
2019-05-23T14:48:36.784Z,19.05
2019-05-23T14:51:12.527Z,19.07
2019-05-23T14:53:51.756Z,19.10
2019-05-23T14:56:22.443Z,19.12
2019-05-23T14:58:51.680Z,19.09
2019-05-23T15:01:21.158Z,19.37
2019-05-23T15:03:49.967Z,19.19
2019-05-23T15:06:19.064Z,19.35
2019-05-23T15:08:51.499Z,19.05
2019-05-23T15:11:18.096Z,19.03
2019-05-23T15:13:46.803Z,18.93
2019-05-23T15:16:16.622Z,18.58
2019-05-23T15:18:45.254Z,18.64
2019-05-23T15:21:14.093Z,18.53
2019-05-23T15:23:42.654Z,18.54
2019-05-23T15:26:22.426Z,18.37
2019-05-23T15:28:41.552Z,18.29
2019-05-23T15:31:10.771Z,18.24
2019-05-23T15:33:39.508Z,18.16
2019-05-23T15:36:08.518Z,18.28
2019-05-23T15:38:37.226Z,18.20
2019-05-23T15:41:06.015Z,18.09
2019-05-23T15:43:34.774Z,18.29
2019-05-23T15:46:03.540Z,18.44
2019-05-23T15:48:32.177Z,18.36
2019-05-23T15:51:01.130Z,18.34
2019-05-23T15:53:52.554Z,18.36
2019-05-23T15:56:28.086Z,18.32
2019-05-23T15:59:15.694Z,18.29
2019-05-23T16:02:07.040Z,18.40
2019-05-23T16:04:36.172Z,18.50
2019-05-23T16:07:05.003Z,18.49
2019-05-23T16:09:33.904Z,18.42
2019-05-23T16:12:02.501Z,18.50
2019-05-23T16:14:31.508Z,18.59
2019-05-23T16:17:00.083Z,18.76
2019-05-23T16:19:28.729Z,18.67
2019-05-23T16:21:57.441Z,18.61
2019-05-23T16:24:26.460Z,18.34
2019-05-23T16:26:55.138Z,18.25
2019-05-23T16:29:24.189Z,18.15
2019-05-23T16:31:52.864Z,18.13
2019-05-23T16:34:22.039Z,18.24
2019-05-23T16:36:50.627Z,18.13
2019-05-23T16:39:19.764Z,18.26
2019-05-23T16:41:48.344Z,18.19
2019-05-23T16:44:17.302Z,18.10
2019-05-23T16:46:45.879Z,18.04
2019-05-23T16:49:14.984Z,18.07
2019-05-23T16:51:43.645Z,18.04
2019-05-23T16:54:13.623Z,17.98
2019-05-23T16:56:43.850Z,17.98
2019-05-23T16:59:20.100Z,17.89
2019-05-23T17:02:08.786Z,17.88
2019-05-23T17:04:42.379Z,17.87
2019-05-23T17:07:21.684Z,17.90
2019-05-23T17:10:07.757Z,17.84
2019-05-23T17:12:28.059Z,17.85
2019-05-23T17:15:07.027Z,17.90
2019-05-23T17:18:00.663Z,17.87
2019-05-23T17:20:30.114Z,17.86
2019-05-23T17:23:16.403Z,17.82
2019-05-23T17:25:55.466Z,17.77
2019-05-23T17:28:25.907Z,17.75
2019-05-23T17:30:56.263Z,17.70
2019-05-23T17:33:25.058Z,17.74
2019-05-23T17:35:53.931Z,17.72
2019-05-23T17:38:22.857Z,17.68
2019-05-23T17:40:51.653Z,17.62
2019-05-23T17:43:20.220Z,17.65
2019-05-23T17:45:49.344Z,17.62
2019-05-23T17:48:18.099Z,17.57
2019-05-23T17:50:47.082Z,17.53
2019-05-23T17:53:15.648Z,17.50
2019-05-23T17:55:44.761Z,17.48
2019-05-23T17:58:13.406Z,17.47
2019-05-23T18:00:43.796Z,17.48
2019-05-23T18:03:12.446Z,17.43
2019-05-23T18:05:42.115Z,17.34
2019-05-23T18:08:11.148Z,17.34
2019-05-23T18:10:45.270Z,17.24
2019-05-23T18:13:11.259Z,17.19
2019-05-23T18:15:40.571Z,17.14
2019-05-23T18:18:09.508Z,17.08
2019-05-23T18:20:39.610Z,17.08
2019-05-23T18:23:09.320Z,17.03
2019-05-23T18:25:38.012Z,16.98
2019-05-23T18:28:08.335Z,16.89
2019-05-23T18:30:39.263Z,16.88
2019-05-23T18:33:09.431Z,16.77
2019-05-23T18:35:41.796Z,16.75
2019-05-23T18:38:10.681Z,16.77
2019-05-23T18:40:39.631Z,16.61
2019-05-23T18:43:08.808Z,16.59
2019-05-23T18:45:38.865Z,16.55
2019-05-23T18:48:08.170Z,16.52
2019-05-23T18:50:38.137Z,16.52
2019-05-23T18:53:07.722Z,16.43
2019-05-23T18:55:36.691Z,16.37
2019-05-23T18:58:05.906Z,16.33
2019-05-23T19:00:53.132Z,16.28
2019-05-23T19:03:22.682Z,16.10
2019-05-23T19:05:52.082Z,16.00
2019-05-23T19:08:21.131Z,16.06
2019-05-23T19:10:50.541Z,16.07
2019-05-23T19:13:19.474Z,15.96
2019-05-23T19:15:48.891Z,15.93
2019-05-23T19:18:17.839Z,15.79
2019-05-23T19:20:46.600Z,15.78
2019-05-23T19:23:15.786Z,15.65
2019-05-23T19:25:46.005Z,15.67
2019-05-23T19:28:18.123Z,15.70
2019-05-23T19:30:47.527Z,15.61
2019-05-23T19:33:16.448Z,15.45
2019-05-23T19:35:47.504Z,15.56
2019-05-23T19:38:17.610Z,15.38
2019-05-23T19:40:46.554Z,15.45
2019-05-23T19:43:36.650Z,15.38
2019-05-23T19:46:05.743Z,15.34
2019-05-23T19:48:36.716Z,15.24
2019-05-23T19:51:06.198Z,15.19
2019-05-23T19:53:36.933Z,15.12
2019-05-23T19:56:07.215Z,15.24
2019-05-23T19:58:38.900Z,15.23
2019-05-23T20:01:09.099Z,15.12
2019-05-23T20:03:38.031Z,14.81
2019-05-23T20:06:08.713Z,14.93
2019-05-23T20:08:37.992Z,14.93
2019-05-23T20:11:07.300Z,14.98
2019-05-23T20:13:37.855Z,14.79
2019-05-23T20:16:07.556Z,14.43
2019-05-23T20:18:37.146Z,14.67
2019-05-23T20:21:06.938Z,14.63
2019-05-23T20:23:35.899Z,14.58
2019-05-23T20:26:07.895Z,14.63
2019-05-23T20:28:39.217Z,14.55
2019-05-23T20:31:06.631Z,14.51
2019-05-23T20:33:35.352Z,14.46
2019-05-23T20:36:04.741Z,14.51
2019-05-23T20:38:33.801Z,14.46
2019-05-23T20:41:02.400Z,14.36
2019-05-23T20:43:31.079Z,14.30
2019-05-23T20:45:59.737Z,14.37
2019-05-23T20:48:29.433Z,14.19
2019-05-23T20:50:58.315Z,14.06
2019-05-23T20:53:31.737Z,14.17
2019-05-23T20:56:02.732Z,14.13
2019-05-23T20:58:35.987Z,14.03
2019-05-23T21:01:06.729Z,13.92
2019-05-23T21:03:36.236Z,13.93
2019-05-23T21:06:07.586Z,13.95
2019-05-23T21:08:36.473Z,13.84
2019-05-23T21:11:06.770Z,13.75
2019-05-23T21:13:35.917Z,13.83
2019-05-23T21:16:11.092Z,13.63
2019-05-23T21:18:40.132Z,13.52
2019-05-23T21:21:09.058Z,13.69
2019-05-23T21:23:37.690Z,13.70
2019-05-23T21:26:06.544Z,13.77
2019-05-23T21:28:36.629Z,13.66
2019-05-23T21:31:06.976Z,13.58
2019-05-23T21:33:35.685Z,13.51
2019-05-23T21:36:04.440Z,13.52
2019-05-23T21:38:33.074Z,13.57
2019-05-23T21:41:03.304Z,13.56
2019-05-23T21:43:32.177Z,13.44
2019-05-23T21:46:00.838Z,13.42
2019-05-23T21:48:29.459Z,13.36
2019-05-23T21:50:58.050Z,13.41
2019-05-23T21:53:26.723Z,13.37
2019-05-23T21:55:55.366Z,13.19
2019-05-23T21:58:24.097Z,13.29
2019-05-23T22:01:00.557Z,13.23
2019-05-23T22:03:30.882Z,13.29
2019-05-23T22:05:59.805Z,13.26
2019-05-23T22:08:28.524Z,13.20
2019-05-23T22:10:57.176Z,13.11
2019-05-23T22:13:26.222Z,13.11
2019-05-23T22:15:56.443Z,13.16
2019-05-23T22:18:25.151Z,13.01
2019-05-23T22:20:53.954Z,12.90
2019-05-23T22:23:22.758Z,12.96
2019-05-23T22:25:51.689Z,13.18
2019-05-23T22:28:20.583Z,12.94
2019-05-23T22:30:49.219Z,12.50
2019-05-23T22:33:19.554Z,12.78
2019-05-23T22:35:48.221Z,12.99
2019-05-23T22:38:16.922Z,12.99
2019-05-23T22:40:45.562Z,12.76
2019-05-23T22:43:20.956Z,12.59
2019-05-23T22:45:44.544Z,12.70
2019-05-23T22:48:13.225Z,12.64
2019-05-23T22:50:41.801Z,12.47
2019-05-23T22:53:10.534Z,12.55
2019-05-23T22:55:39.133Z,12.46
2019-05-23T22:58:07.780Z,12.60
2019-05-23T23:00:40.798Z,12.55
2019-05-23T23:03:09.476Z,12.52
2019-05-23T23:05:38.066Z,12.32
2019-05-23T23:08:07.421Z,12.40
2019-05-23T23:10:36.568Z,12.42
2019-05-23T23:13:05.279Z,12.24
2019-05-23T23:15:34.399Z,12.26
2019-05-23T23:18:03.053Z,12.21
2019-05-23T23:20:32.111Z,12.21
2019-05-23T23:23:00.838Z,12.35
2019-05-23T23:25:29.480Z,12.18
2019-05-23T23:27:58.105Z,12.16
2019-05-23T23:30:31.037Z,12.21
2019-05-23T23:32:59.651Z,12.07
2019-05-23T23:35:28.325Z,12.10
2019-05-23T23:37:56.963Z,12.19
2019-05-23T23:40:25.550Z,11.82
2019-05-23T23:42:54.194Z,11.95
2019-05-23T23:45:42.520Z,11.82
2019-05-23T23:48:29.398Z,11.72
2019-05-23T23:51:15.882Z,11.85
2019-05-23T23:54:02.276Z,11.82
2019-05-23T23:56:48.711Z,11.86
2019-05-23T23:59:16.951Z,11.70
